createdAt,value
2018-12-03T00:00:41.299Z,18.69
2018-12-03T00:01:41.499Z,18.68
2018-12-03T00:02:41.446Z,18.67
2018-12-03T00:03:41.755Z,18.66
2018-12-03T00:04:41.587Z,18.66
2018-12-03T00:05:41.751Z,18.66
2018-12-03T00:06:41.738Z,18.66
2018-12-03T00:07:41.314Z,18.66
2018-12-03T00:08:41.527Z,18.65
2018-12-03T00:09:41.874Z,18.65
2018-12-03T00:10:41.501Z,18.65
2018-12-03T00:11:41.270Z,18.65
2018-12-03T00:12:41.481Z,18.65
2018-12-03T00:13:41.579Z,18.64
2018-12-03T00:14:41.210Z,18.65
2018-12-03T00:15:41.488Z,18.64
2018-12-03T00:16:41.435Z,18.64
2018-12-03T00:17:41.853Z,18.64
2018-12-03T00:18:41.612Z,18.63
2018-12-03T00:19:41.503Z,18.63
2018-12-03T00:20:41.297Z,18.63
2018-12-03T00:21:41.367Z,18.62
2018-12-03T00:22:41.223Z,18.62
2018-12-03T00:23:41.696Z,18.62
2018-12-03T00:24:41.411Z,18.61
2018-12-03T00:25:41.273Z,18.61
2018-12-03T00:26:41.429Z,18.6
2018-12-03T00:27:41.294Z,18.6
2018-12-03T00:28:41.441Z,18.6
2018-12-03T00:29:41.532Z,18.6
2018-12-03T00:30:41.423Z,18.6
2018-12-03T00:31:41.376Z,18.6
2018-12-03T00:32:41.318Z,18.6
2018-12-03T00:33:41.717Z,18.6
2018-12-03T00:34:41.242Z,18.6
2018-12-03T00:35:41.677Z,18.59
2018-12-03T00:36:42.089Z,18.58
2018-12-03T00:37:41.988Z,18.58
2018-12-03T00:38:42.346Z,18.58
2018-12-03T00:39:41.429Z,18.58
2018-12-03T00:40:41.438Z,18.57
2018-12-03T00:41:41.325Z,18.56
2018-12-03T00:42:41.504Z,18.56
2018-12-03T00:43:41.260Z,18.56
2018-12-03T00:44:41.404Z,18.56
2018-12-03T00:45:41.425Z,18.56
2018-12-03T00:46:41.582Z,18.55
2018-12-03T00:47:41.888Z,18.55
2018-12-03T00:48:41.347Z,18.54
2018-12-03T00:49:41.394Z,18.54
2018-12-03T00:50:41.263Z,18.55
2018-12-03T00:51:41.277Z,18.55
2018-12-03T00:52:41.454Z,18.54
2018-12-03T00:53:41.321Z,18.54
2018-12-03T00:54:41.435Z,18.54
2018-12-03T00:55:41.397Z,18.54
2018-12-03T00:56:41.746Z,18.54
2018-12-03T00:57:41.534Z,18.54
2018-12-03T00:58:41.746Z,18.54
2018-12-03T00:59:41.417Z,18.53
2018-12-03T01:00:41.314Z,18.53
2018-12-03T01:01:41.842Z,18.54
2018-12-03T01:02:41.718Z,18.53
2018-12-03T01:03:41.673Z,18.52
2018-12-03T01:04:41.222Z,18.52
2018-12-03T01:05:41.774Z,18.52
2018-12-03T01:06:41.609Z,18.52
2018-12-03T01:07:41.294Z,18.53
2018-12-03T01:08:41.962Z,18.52
2018-12-03T01:09:42.176Z,18.51
2018-12-03T01:10:41.408Z,18.51
2018-12-03T01:11:41.441Z,18.5
2018-12-03T01:12:41.759Z,18.51
2018-12-03T01:13:41.752Z,18.52
2018-12-03T01:14:41.228Z,18.5
2018-12-03T01:15:41.518Z,18.5
2018-12-03T01:16:41.356Z,18.5
2018-12-03T01:17:41.414Z,18.49
2018-12-03T01:18:41.402Z,18.49
2018-12-03T01:19:41.401Z,18.49
2018-12-03T01:20:41.346Z,18.49
2018-12-03T01:21:41.380Z,18.48
2018-12-03T01:22:41.233Z,18.48
2018-12-03T01:23:41.189Z,18.48
2018-12-03T01:24:41.432Z,18.48
2018-12-03T01:25:41.289Z,18.48
2018-12-03T01:26:41.462Z,18.48
2018-12-03T01:27:41.317Z,18.48
2018-12-03T01:28:41.860Z,18.47
2018-12-03T01:29:41.211Z,18.47
2018-12-03T01:30:41.395Z,18.47
2018-12-03T01:31:41.642Z,18.47
2018-12-03T01:32:41.325Z,18.47
2018-12-03T01:33:41.957Z,18.47
2018-12-03T01:34:41.316Z,18.46
2018-12-03T01:35:41.346Z,18.46
2018-12-03T01:36:41.236Z,18.46
2018-12-03T01:37:41.478Z,18.45
2018-12-03T01:38:41.736Z,18.44
2018-12-03T01:39:41.334Z,18.43
2018-12-03T01:40:41.805Z,18.44
2018-12-03T01:41:41.214Z,18.43
2018-12-03T01:42:41.417Z,18.44
2018-12-03T01:43:41.242Z,18.44
2018-12-03T01:44:41.354Z,18.44
2018-12-03T01:45:41.708Z,18.43
2018-12-03T01:46:41.477Z,18.43
2018-12-03T01:47:41.488Z,18.43
2018-12-03T01:48:41.448Z,18.42
2018-12-03T01:49:41.862Z,18.42
2018-12-03T01:50:41.588Z,18.42
2018-12-03T01:51:41.648Z,18.42
2018-12-03T01:52:41.765Z,18.42
2018-12-03T01:53:41.513Z,18.41
2018-12-03T01:54:41.288Z,18.41
2018-12-03T01:55:41.548Z,18.41
2018-12-03T01:56:41.552Z,18.41
2018-12-03T01:57:41.757Z,18.41
2018-12-03T01:58:41.470Z,18.41
2018-12-03T01:59:42.219Z,18.41
2018-12-03T02:00:41.927Z,18.4
2018-12-03T02:01:41.367Z,18.4
2018-12-03T02:02:42.262Z,18.4
2018-12-03T02:03:41.850Z,18.41
2018-12-03T02:04:41.665Z,18.4
2018-12-03T02:05:41.478Z,18.39
2018-12-03T02:06:41.420Z,18.39
2018-12-03T02:07:41.617Z,18.39
2018-12-03T02:08:41.390Z,18.39
2018-12-03T02:09:41.725Z,18.39
2018-12-03T02:10:41.754Z,18.38
2018-12-03T02:11:41.639Z,18.37
2018-12-03T02:12:41.564Z,18.37
2018-12-03T02:13:41.337Z,18.36
2018-12-03T02:14:41.699Z,18.38
2018-12-03T02:15:41.539Z,18.37
2018-12-03T02:16:41.422Z,18.37
2018-12-03T02:17:41.204Z,18.37
2018-12-03T02:18:41.617Z,18.37
2018-12-03T02:19:41.441Z,18.36
2018-12-03T02:20:41.310Z,18.35
2018-12-03T02:21:41.434Z,18.36
2018-12-03T02:22:41.303Z,18.36
2018-12-03T02:23:41.381Z,18.36
2018-12-03T02:24:41.208Z,18.35
2018-12-03T02:25:41.431Z,18.35
2018-12-03T02:26:41.446Z,18.35
2018-12-03T02:27:41.353Z,18.36
2018-12-03T02:28:41.782Z,18.35
2018-12-03T02:29:41.231Z,18.35
2018-12-03T02:30:41.563Z,18.35
2018-12-03T02:31:41.623Z,18.35
2018-12-03T02:32:41.377Z,18.34
2018-12-03T02:33:41.307Z,18.34
2018-12-03T02:34:41.424Z,18.33
2018-12-03T02:35:41.243Z,18.33
2018-12-03T02:36:41.319Z,18.33
2018-12-03T02:37:41.813Z,18.34
2018-12-03T02:38:41.269Z,18.34
2018-12-03T02:39:41.748Z,18.33
2018-12-03T02:40:41.309Z,18.32
2018-12-03T02:41:41.343Z,18.32
2018-12-03T02:42:41.347Z,18.32
2018-12-03T02:43:41.251Z,18.32
2018-12-03T02:44:42.200Z,18.32
2018-12-03T02:45:41.305Z,18.32
2018-12-03T02:46:41.813Z,18.32
2018-12-03T02:47:41.757Z,18.32
2018-12-03T02:48:41.934Z,18.31
2018-12-03T02:49:41.529Z,18.32
2018-12-03T02:50:41.475Z,18.31
2018-12-03T02:51:41.256Z,18.31
2018-12-03T02:52:41.394Z,18.31
2018-12-03T02:53:41.401Z,18.3
2018-12-03T02:54:41.188Z,18.31
2018-12-03T02:55:41.450Z,18.31
2018-12-03T02:56:41.266Z,18.31
2018-12-03T02:57:41.451Z,18.3
2018-12-03T02:58:41.270Z,18.29
2018-12-03T02:59:41.363Z,18.29
2018-12-03T03:00:41.429Z,18.29
2018-12-03T03:01:41.318Z,18.29
2018-12-03T03:02:41.427Z,18.29
2018-12-03T03:03:41.651Z,18.29
2018-12-03T03:04:41.409Z,18.29
2018-12-03T03:05:41.313Z,18.29
2018-12-03T03:06:41.382Z,18.29
2018-12-03T03:07:41.440Z,18.29
2018-12-03T03:08:41.219Z,18.28
2018-12-03T03:09:41.431Z,18.29
2018-12-03T03:10:41.380Z,18.28
2018-12-03T03:11:42.687Z,18.28
2018-12-03T03:12:41.351Z,18.27
2018-12-03T03:13:41.309Z,18.28
2018-12-03T03:14:41.417Z,18.28
2018-12-03T03:15:41.371Z,18.27
2018-12-03T03:16:41.683Z,18.28
2018-12-03T03:17:42.078Z,18.27
2018-12-03T03:18:41.463Z,18.27
2018-12-03T03:19:41.371Z,18.28
2018-12-03T03:20:41.655Z,18.26
2018-12-03T03:21:41.318Z,18.26
2018-12-03T03:22:41.237Z,18.26
2018-12-03T03:23:41.815Z,18.27
2018-12-03T03:24:41.274Z,18.25
2018-12-03T03:25:41.517Z,18.25
2018-12-03T03:26:41.479Z,18.25
2018-12-03T03:27:41.421Z,18.24
2018-12-03T03:28:41.333Z,18.24
2018-12-03T03:29:41.724Z,18.25
2018-12-03T03:30:41.876Z,18.24
2018-12-03T03:31:41.281Z,18.24
2018-12-03T03:32:42.077Z,18.24
2018-12-03T03:33:41.297Z,18.24
2018-12-03T03:34:41.309Z,18.23
2018-12-03T03:35:41.660Z,18.24
2018-12-03T03:36:41.659Z,18.23
2018-12-03T03:37:41.782Z,18.24
2018-12-03T03:38:41.754Z,18.24
2018-12-03T03:39:41.388Z,18.24
2018-12-03T03:40:41.480Z,18.23
2018-12-03T03:41:41.394Z,18.23
2018-12-03T03:42:41.192Z,18.23
2018-12-03T03:43:41.276Z,18.23
2018-12-03T03:44:41.376Z,18.23
2018-12-03T03:45:41.391Z,18.23
2018-12-03T03:46:41.357Z,18.22
2018-12-03T03:47:41.279Z,18.22
2018-12-03T03:48:41.404Z,18.22
2018-12-03T03:49:42.075Z,18.22
2018-12-03T03:50:41.751Z,18.23
2018-12-03T03:51:41.175Z,18.22
2018-12-03T03:52:41.651Z,18.21
2018-12-03T03:53:41.436Z,18.21
2018-12-03T03:54:41.281Z,18.2
2018-12-03T03:55:41.474Z,18.21
2018-12-03T03:56:41.318Z,18.2
2018-12-03T03:57:41.451Z,18.2
2018-12-03T03:58:41.521Z,18.21
2018-12-03T03:59:41.381Z,18.2
2018-12-03T04:00:41.611Z,18.2
2018-12-03T04:01:41.698Z,18.2
2018-12-03T04:02:41.586Z,18.2
2018-12-03T04:03:41.952Z,18.19
2018-12-03T04:04:41.433Z,18.18
2018-12-03T04:05:41.542Z,18.18
2018-12-03T04:06:41.360Z,18.19
2018-12-03T04:07:41.202Z,18.19
2018-12-03T04:08:41.256Z,18.19
2018-12-03T04:09:41.176Z,18.19
2018-12-03T04:10:41.749Z,18.18
2018-12-03T04:11:41.387Z,18.18
2018-12-03T04:12:41.732Z,18.18
2018-12-03T04:13:41.384Z,18.17
2018-12-03T04:14:41.495Z,18.17
2018-12-03T04:15:41.451Z,18.17
2018-12-03T04:16:41.720Z,18.17
2018-12-03T04:17:41.387Z,18.17
2018-12-03T04:18:41.530Z,18.17
2018-12-03T04:19:41.647Z,18.17
2018-12-03T04:20:41.838Z,18.17
2018-12-03T04:21:41.509Z,18.17
2018-12-03T04:22:41.337Z,18.17
2018-12-03T04:23:41.301Z,18.17
2018-12-03T04:24:41.552Z,18.17
2018-12-03T04:25:41.401Z,18.17
2018-12-03T04:26:41.133Z,18.17
2018-12-03T04:27:41.558Z,18.17
2018-12-03T04:28:41.725Z,18.16
2018-12-03T04:29:41.770Z,18.16
2018-12-03T04:30:41.210Z,18.16
2018-12-03T04:31:41.320Z,18.16
2018-12-03T04:32:41.240Z,18.16
2018-12-03T04:33:41.624Z,18.16
2018-12-03T04:34:41.198Z,18.16
2018-12-03T04:35:41.126Z,18.16
2018-12-03T04:36:41.458Z,18.15
2018-12-03T04:37:41.251Z,18.15
2018-12-03T04:38:41.361Z,18.15
2018-12-03T04:39:41.326Z,18.16
2018-12-03T04:40:41.233Z,18.15
2018-12-03T04:41:41.139Z,18.16
2018-12-03T04:42:41.363Z,18.16
2018-12-03T04:43:41.349Z,18.16
2018-12-03T04:44:41.177Z,18.16
2018-12-03T04:45:41.864Z,18.17
2018-12-03T04:46:41.197Z,18.17
2018-12-03T04:47:41.353Z,18.17
2018-12-03T04:48:41.085Z,18.18
2018-12-03T04:49:41.627Z,18.17
2018-12-03T04:50:41.467Z,18.18
2018-12-03T04:51:41.321Z,18.19
2018-12-03T04:52:41.785Z,18.19
2018-12-03T04:53:42.315Z,18.19
2018-12-03T04:54:41.434Z,18.2
2018-12-03T04:55:41.337Z,18.2
2018-12-03T04:56:41.327Z,18.22
2018-12-03T04:57:41.964Z,18.21
2018-12-03T04:58:42.069Z,18.23
2018-12-03T04:59:41.736Z,18.23
2018-12-03T05:00:41.416Z,18.23
2018-12-03T05:01:41.577Z,18.24
2018-12-03T05:02:41.550Z,18.24
2018-12-03T05:03:41.747Z,18.26
2018-12-03T05:04:41.623Z,18.26
2018-12-03T05:05:41.580Z,18.27
2018-12-03T05:06:41.681Z,18.28
2018-12-03T05:07:41.375Z,18.29
2018-12-03T05:08:41.468Z,18.29
2018-12-03T05:09:41.250Z,18.3
2018-12-03T05:10:41.337Z,18.31
2018-12-03T05:11:41.270Z,18.32
2018-12-03T05:12:41.570Z,18.33
2018-12-03T05:13:41.390Z,18.34
2018-12-03T05:14:41.388Z,18.34
2018-12-03T05:15:41.532Z,18.35
2018-12-03T05:16:41.187Z,18.36
2018-12-03T05:17:41.347Z,18.36
2018-12-03T05:18:41.150Z,18.37
2018-12-03T05:19:41.317Z,18.38
2018-12-03T05:20:41.697Z,18.39
2018-12-03T05:21:41.465Z,18.4
2018-12-03T05:22:41.353Z,18.41
2018-12-03T05:23:41.180Z,18.41
2018-12-03T05:24:41.668Z,18.41
2018-12-03T05:25:42.203Z,18.42
2018-12-03T05:26:41.657Z,18.43
2018-12-03T05:27:41.411Z,18.44
2018-12-03T05:28:41.292Z,18.44
2018-12-03T05:29:41.334Z,18.45
2018-12-03T05:30:41.425Z,18.46
2018-12-03T05:31:42.061Z,18.46
2018-12-03T05:32:41.641Z,18.47
2018-12-03T05:33:41.428Z,18.48
2018-12-03T05:34:41.107Z,18.47
2018-12-03T05:35:41.293Z,18.47
2018-12-03T05:36:42.120Z,18.47
2018-12-03T05:37:41.799Z,18.48
2018-12-03T05:38:41.354Z,18.48
2018-12-03T05:39:41.173Z,18.48
2018-12-03T05:40:41.398Z,18.48
2018-12-03T05:41:41.285Z,18.48
2018-12-03T05:42:41.270Z,18.48
2018-12-03T05:43:41.483Z,18.49
2018-12-03T05:44:41.223Z,18.48
2018-12-03T05:45:41.757Z,18.49
2018-12-03T05:46:41.182Z,18.49
2018-12-03T05:47:41.266Z,18.49
2018-12-03T05:48:41.486Z,18.49
2018-12-03T05:49:41.700Z,18.49
2018-12-03T05:50:41.238Z,18.49
2018-12-03T05:51:41.701Z,18.5
2018-12-03T05:52:41.445Z,18.5
2018-12-03T05:53:41.413Z,18.5
2018-12-03T05:54:41.475Z,18.5
2018-12-03T05:55:41.258Z,18.5
2018-12-03T05:56:41.625Z,18.51
2018-12-03T05:57:41.530Z,18.51
2018-12-03T05:58:41.236Z,18.5
2018-12-03T05:59:41.209Z,18.5
2018-12-03T06:00:41.453Z,18.5
2018-12-03T06:01:41.170Z,18.5
2018-12-03T06:02:41.364Z,18.51
2018-12-03T06:03:41.316Z,18.51
2018-12-03T06:04:41.492Z,18.51
2018-12-03T06:05:41.294Z,18.52
2018-12-03T06:06:41.127Z,18.52
2018-12-03T06:07:41.246Z,18.52
2018-12-03T06:08:41.303Z,18.52
2018-12-03T06:09:41.191Z,18.52
2018-12-03T06:10:41.338Z,18.52
2018-12-03T06:11:41.689Z,18.51
2018-12-03T06:12:41.387Z,18.51
2018-12-03T06:13:41.275Z,18.52
2018-12-03T06:14:41.563Z,18.51
2018-12-03T06:15:41.220Z,18.51
2018-12-03T06:16:41.192Z,18.51
2018-12-03T06:17:41.118Z,18.51
2018-12-03T06:18:41.287Z,18.51
2018-12-03T06:19:41.436Z,18.51
2018-12-03T06:20:41.139Z,18.51
2018-12-03T06:21:41.384Z,18.51
2018-12-03T06:22:41.153Z,18.5
2018-12-03T06:23:41.206Z,18.51
2018-12-03T06:24:41.147Z,18.5
2018-12-03T06:25:41.102Z,18.5
2018-12-03T06:26:41.316Z,18.51
2018-12-03T06:27:41.204Z,18.5
2018-12-03T06:28:41.326Z,18.5
2018-12-03T06:29:41.911Z,18.51
2018-12-03T06:30:41.387Z,18.5
2018-12-03T06:31:41.106Z,18.5
2018-12-03T06:32:41.741Z,18.5
2018-12-03T06:33:41.444Z,18.5
2018-12-03T06:34:41.204Z,18.5
2018-12-03T06:35:41.360Z,18.5
2018-12-03T06:36:41.169Z,18.5
2018-12-03T06:37:41.364Z,18.49
2018-12-03T06:38:41.246Z,18.48
2018-12-03T06:39:41.274Z,18.48
2018-12-03T06:40:41.436Z,18.48
2018-12-03T06:41:41.666Z,18.49
2018-12-03T06:42:41.761Z,18.48
2018-12-03T06:43:41.903Z,18.48
2018-12-03T06:44:41.285Z,18.48
2018-12-03T06:45:41.279Z,18.48
2018-12-03T06:46:41.292Z,18.48
2018-12-03T06:47:41.098Z,18.48
2018-12-03T06:48:41.592Z,18.48
2018-12-03T06:49:41.442Z,18.48
2018-12-03T06:50:41.521Z,18.48
2018-12-03T06:51:41.609Z,18.48
2018-12-03T06:52:41.392Z,18.48
2018-12-03T06:53:41.758Z,18.48
2018-12-03T06:54:42.883Z,18.48
2018-12-03T06:55:41.314Z,18.48
2018-12-03T06:56:41.406Z,18.48
2018-12-03T06:57:41.553Z,18.47
2018-12-03T06:58:41.275Z,18.47
2018-12-03T06:59:41.194Z,18.47
2018-12-03T07:00:41.712Z,18.47
2018-12-03T07:01:41.469Z,18.47
2018-12-03T07:02:41.378Z,18.46
2018-12-03T07:03:41.826Z,18.46
2018-12-03T07:04:41.219Z,18.45
2018-12-03T07:05:41.307Z,18.45
2018-12-03T07:06:41.515Z,18.44
2018-12-03T07:07:41.501Z,18.44
2018-12-03T07:08:42.089Z,18.44
2018-12-03T07:09:41.217Z,18.44
2018-12-03T07:10:41.076Z,18.43
2018-12-03T07:11:41.323Z,18.44
2018-12-03T07:12:41.768Z,18.44
2018-12-03T07:13:41.454Z,18.44
2018-12-03T07:14:41.396Z,18.44
2018-12-03T07:15:41.310Z,18.43
2018-12-03T07:16:41.419Z,18.43
2018-12-03T07:17:41.152Z,18.43
2018-12-03T07:18:42.165Z,18.43
2018-12-03T07:19:41.143Z,18.43
2018-12-03T07:20:41.282Z,18.43
2018-12-03T07:21:41.945Z,18.43
2018-12-03T07:22:41.391Z,18.43
2018-12-03T07:23:41.714Z,18.42
2018-12-03T07:24:41.241Z,18.42
2018-12-03T07:25:41.331Z,18.43
2018-12-03T07:26:41.483Z,18.42
2018-12-03T07:27:41.261Z,18.42
2018-12-03T07:28:41.550Z,18.42
2018-12-03T07:29:41.222Z,18.42
2018-12-03T07:30:41.283Z,18.42
2018-12-03T07:31:41.577Z,18.42
2018-12-03T07:32:41.357Z,18.42
2018-12-03T07:33:41.778Z,18.42
2018-12-03T07:34:41.135Z,18.42
2018-12-03T07:35:41.345Z,18.42
2018-12-03T07:36:41.253Z,18.42
2018-12-03T07:37:41.766Z,18.42
2018-12-03T07:38:42.036Z,18.42
2018-12-03T07:39:41.250Z,18.42
2018-12-03T07:40:41.194Z,18.41
2018-12-03T07:41:41.208Z,18.41
2018-12-03T07:42:41.275Z,18.41
2018-12-03T07:43:41.194Z,18.41
2018-12-03T07:44:41.296Z,18.41
2018-12-03T07:45:41.160Z,18.41
2018-12-03T07:46:41.710Z,18.41
2018-12-03T07:47:41.574Z,18.41
2018-12-03T07:48:41.319Z,18.41
2018-12-03T07:49:41.022Z,18.41
2018-12-03T07:50:41.269Z,18.41
2018-12-03T07:51:41.102Z,18.42
2018-12-03T07:52:41.256Z,18.41
2018-12-03T07:53:41.320Z,18.41
2018-12-03T07:54:41.214Z,18.41
2018-12-03T07:55:41.320Z,18.42
2018-12-03T07:56:41.116Z,18.41
2018-12-03T07:57:41.244Z,18.41
2018-12-03T07:58:41.122Z,18.41
2018-12-03T07:59:41.145Z,18.41
2018-12-03T08:00:41.046Z,18.41
2018-12-03T08:01:41.216Z,18.41
2018-12-03T08:02:41.305Z,18.41
2018-12-03T08:03:41.191Z,18.41
2018-12-03T08:04:41.218Z,18.41
2018-12-03T08:05:41.175Z,18.41
2018-12-03T08:06:41.254Z,18.41
2018-12-03T08:07:41.544Z,18.41
2018-12-03T08:08:41.242Z,18.41
2018-12-03T08:09:41.048Z,18.41
2018-12-03T08:10:41.384Z,18.41
2018-12-03T08:11:41.280Z,18.42
2018-12-03T08:12:41.572Z,18.41
2018-12-03T08:13:41.170Z,18.41
2018-12-03T08:14:41.096Z,18.41
2018-12-03T08:15:41.407Z,18.41
2018-12-03T08:16:41.073Z,18.41
2018-12-03T08:17:41.177Z,18.41
2018-12-03T08:18:41.152Z,18.41
2018-12-03T08:19:41.189Z,18.42
2018-12-03T08:20:41.171Z,18.42
2018-12-03T08:21:41.094Z,18.42
2018-12-03T08:22:41.544Z,18.42
2018-12-03T08:23:41.353Z,18.43
2018-12-03T08:24:41.369Z,18.42
2018-12-03T08:25:41.686Z,18.42
2018-12-03T08:26:41.101Z,18.43
2018-12-03T08:27:41.029Z,18.42
2018-12-03T08:28:42.012Z,18.42
2018-12-03T08:29:41.664Z,18.42
2018-12-03T08:30:41.075Z,18.42
2018-12-03T08:31:41.515Z,18.42
2018-12-03T08:32:41.505Z,18.42
2018-12-03T08:33:41.399Z,18.42
2018-12-03T08:34:41.362Z,18.42
2018-12-03T08:35:41.455Z,18.42
2018-12-03T08:36:41.068Z,18.43
2018-12-03T08:37:41.144Z,18.43
2018-12-03T08:38:41.205Z,18.43
2018-12-03T08:39:41.075Z,18.42
2018-12-03T08:40:41.261Z,18.43
2018-12-03T08:41:41.161Z,18.42
2018-12-03T08:42:41.655Z,18.42
2018-12-03T08:43:41.306Z,18.42
2018-12-03T08:44:41.515Z,18.42
2018-12-03T08:45:41.107Z,18.43
2018-12-03T08:46:41.187Z,18.43
2018-12-03T08:47:41.235Z,18.43
2018-12-03T08:48:41.542Z,18.43
2018-12-03T08:49:41.418Z,18.43
2018-12-03T08:50:41.290Z,18.43
2018-12-03T08:51:41.652Z,18.43
2018-12-03T08:52:41.359Z,18.43
2018-12-03T08:53:41.279Z,18.43
2018-12-03T08:54:41.258Z,18.43
2018-12-03T08:55:41.134Z,18.43
2018-12-03T08:56:41.148Z,18.43
2018-12-03T08:57:41.401Z,18.43
2018-12-03T08:58:41.517Z,18.43
2018-12-03T08:59:41.704Z,18.42
2018-12-03T09:00:41.116Z,18.43
2018-12-03T09:01:41.532Z,18.43
2018-12-03T09:02:41.134Z,18.43
2018-12-03T09:03:41.649Z,18.43
2018-12-03T09:04:41.580Z,18.43
2018-12-03T09:05:41.370Z,18.43
2018-12-03T09:06:41.111Z,18.43
2018-12-03T09:07:41.867Z,18.43
2018-12-03T09:08:41.281Z,18.43
2018-12-03T09:09:41.272Z,18.42
2018-12-03T09:10:41.336Z,18.43
2018-12-03T09:11:41.242Z,18.43
2018-12-03T09:12:41.264Z,18.43
2018-12-03T09:13:41.978Z,18.42
2018-12-03T09:14:41.246Z,18.43
2018-12-03T09:15:41.781Z,18.43
2018-12-03T09:16:41.124Z,18.42
2018-12-03T09:17:41.754Z,18.42
2018-12-03T09:18:41.172Z,18.42
2018-12-03T09:19:41.359Z,18.43
2018-12-03T09:20:41.241Z,18.42
2018-12-03T09:21:41.185Z,18.42
2018-12-03T09:22:41.350Z,18.42
2018-12-03T09:23:41.227Z,18.43
2018-12-03T09:24:41.173Z,18.42
2018-12-03T09:25:41.555Z,18.42
2018-12-03T09:26:41.780Z,18.43
2018-12-03T09:27:41.285Z,18.43
2018-12-03T09:28:41.145Z,18.42
2018-12-03T09:29:41.694Z,18.42
2018-12-03T09:30:41.068Z,18.42
2018-12-03T09:31:41.193Z,18.42
2018-12-03T09:32:41.232Z,18.43
2018-12-03T09:33:41.224Z,18.43
2018-12-03T09:34:41.286Z,18.43
2018-12-03T09:35:41.161Z,18.43
2018-12-03T09:36:41.531Z,18.43
2018-12-03T09:37:41.154Z,18.43
2018-12-03T09:38:41.353Z,18.43
2018-12-03T09:39:41.399Z,18.43
2018-12-03T09:40:41.559Z,18.42
2018-12-03T09:41:41.060Z,18.42
2018-12-03T09:42:41.126Z,18.42
2018-12-03T09:43:41.283Z,18.43
2018-12-03T09:44:41.238Z,18.44
2018-12-03T09:45:41.642Z,18.46
2018-12-03T09:46:41.504Z,18.46
2018-12-03T09:47:41.563Z,18.45
2018-12-03T09:48:42.185Z,18.46
2018-12-03T09:49:41.273Z,18.46
2018-12-03T09:50:41.009Z,18.46
2018-12-03T09:51:41.776Z,18.46
2018-12-03T09:52:41.307Z,18.47
2018-12-03T09:53:41.929Z,18.47
2018-12-03T09:54:41.660Z,18.48
2018-12-03T09:55:41.168Z,18.48
2018-12-03T09:56:41.178Z,18.48
2018-12-03T09:57:41.138Z,18.48
2018-12-03T09:58:41.191Z,18.48
2018-12-03T09:59:41.416Z,18.49
2018-12-03T10:00:41.054Z,18.49
2018-12-03T10:01:41.280Z,18.49
2018-12-03T10:02:41.590Z,18.5
2018-12-03T10:03:41.167Z,18.5
2018-12-03T10:04:41.587Z,18.51
2018-12-03T10:05:41.889Z,18.51
2018-12-03T10:06:41.428Z,18.51
2018-12-03T10:07:40.968Z,18.53
2018-12-03T10:08:41.553Z,18.52
2018-12-03T10:09:41.536Z,18.52
2018-12-03T10:10:41.497Z,18.53
2018-12-03T10:11:41.034Z,18.53
2018-12-03T10:12:41.463Z,18.53
2018-12-03T10:13:41.301Z,18.54
2018-12-03T10:14:41.084Z,18.54
2018-12-03T10:15:41.436Z,18.54
2018-12-03T10:16:41.090Z,18.54
2018-12-03T10:17:41.302Z,18.54
2018-12-03T10:18:41.066Z,18.54
2018-12-03T10:19:41.775Z,18.55
2018-12-03T10:20:42.497Z,18.55
2018-12-03T10:21:41.217Z,18.56
2018-12-03T10:22:41.318Z,18.56
2018-12-03T10:23:41.362Z,18.57
2018-12-03T10:24:41.182Z,18.56
2018-12-03T10:25:41.353Z,18.56
2018-12-03T10:26:41.151Z,18.57
2018-12-03T10:27:41.186Z,18.58
2018-12-03T10:28:41.067Z,18.59
2018-12-03T10:29:41.538Z,18.6
2018-12-03T10:30:41.268Z,18.59
2018-12-03T10:31:41.274Z,18.6
2018-12-03T10:32:41.243Z,18.59
2018-12-03T10:33:41.253Z,18.6
2018-12-03T10:34:41.193Z,18.6
2018-12-03T10:35:41.396Z,18.6
2018-12-03T10:36:41.391Z,18.61
2018-12-03T10:37:41.295Z,18.6
2018-12-03T10:38:41.266Z,18.6
2018-12-03T10:39:41.205Z,18.6
2018-12-03T10:40:41.206Z,18.59
2018-12-03T10:41:41.210Z,18.58
2018-12-03T10:42:41.058Z,18.58
2018-12-03T10:43:41.248Z,18.57
2018-12-03T10:44:41.140Z,18.56
2018-12-03T10:45:41.530Z,18.56
2018-12-03T10:46:41.446Z,18.56
2018-12-03T10:47:41.352Z,18.56
2018-12-03T10:48:41.107Z,18.55
2018-12-03T10:49:41.227Z,18.55
2018-12-03T10:50:41.233Z,18.54
2018-12-03T10:51:41.424Z,18.54
2018-12-03T10:52:41.064Z,18.54
2018-12-03T10:53:41.304Z,18.54
2018-12-03T10:54:41.265Z,18.54
2018-12-03T10:55:41.242Z,18.54
2018-12-03T10:56:41.113Z,18.54
2018-12-03T10:57:41.523Z,18.53
2018-12-03T10:58:41.110Z,18.53
2018-12-03T10:59:41.651Z,18.53
2018-12-03T11:00:41.045Z,18.52
2018-12-03T11:01:41.254Z,18.52
2018-12-03T11:02:40.998Z,18.52
2018-12-03T11:03:41.098Z,18.52
2018-12-03T11:04:41.195Z,18.51
2018-12-03T11:05:41.103Z,18.51
2018-12-03T11:06:41.373Z,18.51
2018-12-03T11:07:41.113Z,18.51
2018-12-03T11:08:41.254Z,18.5
2018-12-03T11:09:41.077Z,18.51
2018-12-03T11:10:40.968Z,18.5
2018-12-03T11:11:41.097Z,18.5
2018-12-03T11:12:41.119Z,18.5
2018-12-03T11:13:41.174Z,18.49
2018-12-03T11:14:41.116Z,18.49
2018-12-03T11:15:41.244Z,18.48
2018-12-03T11:16:40.986Z,18.48
2018-12-03T11:17:41.232Z,18.48
2018-12-03T11:18:41.059Z,18.48
2018-12-03T11:19:40.932Z,18.48
2018-12-03T11:20:41.164Z,18.48
2018-12-03T11:21:41.108Z,18.48
2018-12-03T11:22:41.183Z,18.48
2018-12-03T11:23:41.322Z,18.48
2018-12-03T11:24:41.447Z,18.48
2018-12-03T11:25:41.254Z,18.48
2018-12-03T11:26:41.177Z,18.48
2018-12-03T11:27:41.632Z,18.48
2018-12-03T11:28:41.227Z,18.47
2018-12-03T11:29:41.186Z,18.47
2018-12-03T11:30:41.157Z,18.47
2018-12-03T11:31:41.145Z,18.46
2018-12-03T11:32:41.114Z,18.46
2018-12-03T11:33:41.098Z,18.46
2018-12-03T11:34:41.144Z,18.47
2018-12-03T11:35:41.967Z,18.46
2018-12-03T11:36:41.187Z,18.46
2018-12-03T11:37:41.181Z,18.46
2018-12-03T11:38:41.187Z,18.45
2018-12-03T11:39:41.092Z,18.45
2018-12-03T11:40:41.171Z,18.46
2018-12-03T11:41:41.156Z,18.45
2018-12-03T11:42:41.325Z,18.45
2018-12-03T11:43:41.289Z,18.45
2018-12-03T11:44:41.216Z,18.45
2018-12-03T11:45:41.514Z,18.45
2018-12-03T11:46:41.413Z,18.45
2018-12-03T11:47:41.225Z,18.44
2018-12-03T11:48:41.396Z,18.45
2018-12-03T11:49:41.282Z,18.44
2018-12-03T11:50:41.208Z,18.44
2018-12-03T11:51:41.504Z,18.44
2018-12-03T11:52:41.228Z,18.44
2018-12-03T11:53:41.260Z,18.44
2018-12-03T11:54:41.069Z,18.43
2018-12-03T11:55:41.030Z,18.44
2018-12-03T11:56:41.366Z,18.43
2018-12-03T11:57:41.204Z,18.44
2018-12-03T11:58:41.096Z,18.43
2018-12-03T11:59:41.221Z,18.43
2018-12-03T12:00:41.269Z,18.42
2018-12-03T12:01:41.585Z,18.43
2018-12-03T12:02:41.168Z,18.43
2018-12-03T12:03:43.218Z,18.43
2018-12-03T12:04:40.869Z,18.42
2018-12-03T12:05:41.044Z,18.42
2018-12-03T12:06:41.078Z,18.42
2018-12-03T12:07:42.776Z,18.42
2018-12-03T12:08:41.125Z,18.41
2018-12-03T12:09:41.323Z,18.42
2018-12-03T12:10:41.405Z,18.42
2018-12-03T12:11:41.784Z,18.41
2018-12-03T12:12:41.442Z,18.42
2018-12-03T12:13:41.106Z,18.41
2018-12-03T12:14:41.184Z,18.41
2018-12-03T12:15:41.587Z,18.41
2018-12-03T12:16:41.081Z,18.41
2018-12-03T12:17:41.319Z,18.41
2018-12-03T12:18:41.071Z,18.41
2018-12-03T12:19:41.141Z,18.41
2018-12-03T12:20:42.840Z,18.41
2018-12-03T12:21:41.105Z,18.41
2018-12-03T12:22:40.970Z,18.41
2018-12-03T12:23:41.186Z,18.41
2018-12-03T12:24:41.321Z,18.41
2018-12-03T12:25:41.031Z,18.41
2018-12-03T12:26:41.585Z,18.41
2018-12-03T12:27:41.385Z,18.41
2018-12-03T12:28:41.477Z,18.41
2018-12-03T12:29:41.399Z,18.41
2018-12-03T12:30:41.140Z,18.41
2018-12-03T12:31:40.942Z,18.41
2018-12-03T12:32:41.066Z,18.41
2018-12-03T12:33:41.225Z,18.41
2018-12-03T12:34:41.050Z,18.41
2018-12-03T12:35:41.154Z,18.41
2018-12-03T12:36:41.133Z,18.41
2018-12-03T12:37:41.029Z,18.41
2018-12-03T12:38:41.151Z,18.4
2018-12-03T12:39:41.045Z,18.4
2018-12-03T12:40:41.125Z,18.4
2018-12-03T12:41:41.020Z,18.4
2018-12-03T12:42:41.110Z,18.39
2018-12-03T12:43:41.241Z,18.4
2018-12-03T12:44:41.006Z,18.4
2018-12-03T12:45:41.239Z,18.4
2018-12-03T12:46:41.054Z,18.39
2018-12-03T12:47:41.484Z,18.4
2018-12-03T12:48:40.991Z,18.39
2018-12-03T12:49:40.913Z,18.4
2018-12-03T12:50:41.068Z,18.4
2018-12-03T12:51:40.974Z,18.41
2018-12-03T12:52:41.190Z,18.42
2018-12-03T12:53:41.374Z,18.42
2018-12-03T12:54:41.098Z,18.43
2018-12-03T12:55:40.970Z,18.45